sensor_id;sensor_type;location;lat;lon;timestamp;temperature;humidity
8537;DHT22;4306;50.210;10.628;2024-01-15T00:01:58;-3.20;99.90
8537;DHT22;4306;50.210;10.628;2024-01-15T00:04:25;-3.20;99.90
8537;DHT22;4306;50.210;10.628;2024-01-15T00:06:53;-3.20;99.90
8537;DHT22;4306;50.210;10.628;2024-01-15T00:09:21;-3.30;99.90
8537;DHT22;4306;50.210;10.628;2024-01-15T00:11:48;-3.20;99.90
8537;DHT22;4306;50.210;10.628;2024-01-15T00:14:15;-3.20;99.90
8537;DHT22;4306;50.210;10.628;2024-01-15T00:16:45;-3.20;99.90
8537;DHT22;4306;50.210;10.628;2024-01-15T00:19:12;-3.20;99.90
8537;DHT22;4306;50.210;10.628;2024-01-15T00:21:39;-3.20;99.90
8537;DHT22;4306;50.210;10.628;2024-01-15T00:24:08;-3.20;99.90
8537;DHT22;4306;50.210;10.628;2024-01-15T00:26:35;-3.10;99.90
8537;DHT22;4306;50.210;10.628;2024-01-15T00:29:02;-3.10;99.90
8537;DHT22;4306;50.210;10.628;2024-01-15T00:31:29;-3.10;99.90
8537;DHT22;4306;50.210;10.628;2024-01-15T00:33:56;-3.10;99.90
8537;DHT22;4306;50.210;10.628;2024-01-15T00:36:24;-3.00;99.90
8537;DHT22;4306;50.210;10.628;2024-01-15T00:38:51;-3.10;99.90
8537;DHT22;4306;50.210;10.628;2024-01-15T00:41:20;-3.10;99.90
8537;DHT22;4306;50.210;10.628;2024-01-15T00:43:47;-3.10;99.90
8537;DHT22;4306;50.210;10.628;2024-01-15T00:46:15;-3.10;99.90
8537;DHT22;4306;50.210;10.628;2024-01-15T00:48:42;-3.00;99.90
8537;DHT22;4306;50.210;10.628;2024-01-15T00:51:09;-3.10;99.90
8537;DHT22;4306;50.210;10.628;2024-01-15T00:53:36;-3.10;99.90
8537;DHT22;4306;50.210;10.628;2024-01-15T00:56:03;-3.10;99.90
8537;DHT22;4306;50.210;10.628;2024-01-15T00:58:32;-3.00;99.90
8537;DHT22;4306;50.210;10.628;2024-01-15T01:00:59;-3.00;99.90
8537;DHT22;4306;50.210;10.628;2024-01-15T01:03:26;-3.00;99.90
8537;DHT22;4306;50.210;10.628;2024-01-15T01:05:53;-3.00;99.90
8537;DHT22;4306;50.210;10.628;2024-01-15T01:08:20;-3.00;99.90
8537;DHT22;4306;50.210;10.628;2024-01-15T01:10:47;-2.90;99.90
8537;DHT22;4306;50.210;10.628;2024-01-15T01:13:14;-3.00;99.90
8537;DHT22;4306;50.210;10.628;2024-01-15T01:15:42;-3.00;99.90
8537;DHT22;4306;50.210;10.628;2024-01-15T01:18:09;-2.90;99.90
8537;DHT22;4306;50.210;10.628;2024-01-15T01:20:36;-2.90;99.90
8537;DHT22;4306;50.210;10.628;2024-01-15T01:23:03;-2.90;99.90
8537;DHT22;4306;50.210;10.628;2024-01-15T01:25:30;-2.90;99.90
8537;DHT22;4306;50.210;10.628;2024-01-15T01:27:57;-2.90;99.90
8537;DHT22;4306;50.210;10.628;2024-01-15T01:30:25;-2.90;99.90
8537;DHT22;4306;50.210;10.628;2024-01-15T01:32:53;-2.90;99.90
8537;DHT22;4306;50.210;10.628;2024-01-15T01:35:20;-2.80;99.90
8537;DHT22;4306;50.210;10.628;2024-01-15T01:37:47;-2.90;99.90
8537;DHT22;4306;50.210;10.628;2024-01-15T01:40:14;-2.90;99.90
8537;DHT22;4306;50.210;10.628;2024-01-15T01:42:41;-2.80;99.90
8537;DHT22;4306;50.210;10.628;2024-01-15T01:45:09;-2.80;99.90
8537;DHT22;4306;50.210;10.628;2024-01-15T01:47:37;-2.90;99.90
8537;DHT22;4306;50.210;10.628;2024-01-15T01:50:06;-2.80;99.90
8537;DHT22;4306;50.210;10.628;2024-01-15T01:52:34;-2.80;99.90
8537;DHT22;4306;50.210;10.628;2024-01-15T01:55:03;-2.90;99.90
8537;DHT22;4306;50.210;10.628;2024-01-15T01:57:32;-2.90;99.90
8537;DHT22;4306;50.210;10.628;2024-01-15T02:00:02;-2.90;99.90
8537;DHT22;4306;50.210;10.628;2024-01-15T02:02:31;-2.90;99.90
8537;DHT22;4306;50.210;10.628;2024-01-15T02:04:58;-2.90;99.90
8537;DHT22;4306;50.210;10.628;2024-01-15T02:07:26;-2.80;99.90
8537;DHT22;4306;50.210;10.628;2024-01-15T02:09:53;-2.80;99.90
8537;DHT22;4306;50.210;10.628;2024-01-15T02:12:21;-2.80;99.90
8537;DHT22;4306;50.210;10.628;2024-01-15T02:14:48;-2.90;99.90
8537;DHT22;4306;50.210;10.628;2024-01-15T02:17:15;-2.90;99.90
8537;DHT22;4306;50.210;10.628;2024-01-15T02:19:42;-2.90;99.90
8537;DHT22;4306;50.210;10.628;2024-01-15T02:22:09;-2.80;99.90
8537;DHT22;4306;50.210;10.628;2024-01-15T02:24:37;-2.70;99.90
8537;DHT22;4306;50.210;10.628;2024-01-15T02:27:05;-2.90;99.90
8537;DHT22;4306;50.210;10.628;2024-01-15T02:29:32;-2.80;99.90
8537;DHT22;4306;50.210;10.628;2024-01-15T02:31:59;-2.90;99.90
8537;DHT22;4306;50.210;10.628;2024-01-15T02:34:26;-2.80;99.90
8537;DHT22;4306;50.210;10.628;2024-01-15T02:36:53;-2.80;99.90
8537;DHT22;4306;50.210;10.628;2024-01-15T02:39:20;-2.80;99.90
8537;DHT22;4306;50.210;10.628;2024-01-15T02:41:48;-2.80;99.90
8537;DHT22;4306;50.210;10.628;2024-01-15T02:44:15;-2.80;99.90
8537;DHT22;4306;50.210;10.628;2024-01-15T02:46:42;-2.80;99.90
8537;DHT22;4306;50.210;10.628;2024-01-15T02:49:09;-2.70;99.90
8537;DHT22;4306;50.210;10.628;2024-01-15T02:51:36;-2.70;99.90
8537;DHT22;4306;50.210;10.628;2024-01-15T02:54:03;-2.80;99.90
8537;DHT22;4306;50.210;10.628;2024-01-15T02:56:31;-2.80;99.90
8537;DHT22;4306;50.210;10.628;2024-01-15T02:58:59;-2.70;99.90
8537;DHT22;4306;50.210;10.628;2024-01-15T03:01:26;-2.80;99.90
8537;DHT22;4306;50.210;10.628;2024-01-15T03:03:53;-2.70;99.90
8537;DHT22;4306;50.210;10.628;2024-01-15T03:06:21;-2.70;99.90
8537;DHT22;4306;50.210;10.628;2024-01-15T03:08:48;-2.70;99.90
8537;DHT22;4306;50.210;10.628;2024-01-15T03:11:15;-2.70;99.90
8537;DHT22;4306;50.210;10.628;2024-01-15T03:13:42;-2.60;99.90
8537;DHT22;4306;50.210;10.628;2024-01-15T03:16:10;-2.60;99.90
8537;DHT22;4306;50.210;10.628;2024-01-15T03:18:37;-2.60;99.90
8537;DHT22;4306;50.210;10.628;2024-01-15T03:21:05;-2.60;99.90
8537;DHT22;4306;50.210;10.628;2024-01-15T03:23:32;-2.60;99.90
8537;DHT22;4306;50.210;10.628;2024-01-15T03:26:00;-2.60;99.90
8537;DHT22;4306;50.210;10.628;2024-01-15T03:28:27;-2.60;99.90
8537;DHT22;4306;50.210;10.628;2024-01-15T03:30:56;-2.60;99.90
8537;DHT22;4306;50.210;10.628;2024-01-15T03:33:24;-2.60;99.90
8537;DHT22;4306;50.210;10.628;2024-01-15T03:35:51;-2.60;99.90
8537;DHT22;4306;50.210;10.628;2024-01-15T03:38:18;-2.50;99.90
8537;DHT22;4306;50.210;10.628;2024-01-15T03:40:45;-2.50;99.90
8537;DHT22;4306;50.210;10.628;2024-01-15T03:43:12;-2.50;99.90
8537;DHT22;4306;50.210;10.628;2024-01-15T03:45:39;-2.50;99.90
8537;DHT22;4306;50.210;10.628;2024-01-15T03:48:07;-2.50;99.90
8537;DHT22;4306;50.210;10.628;2024-01-15T03:50:35;-2.40;99.90
8537;DHT22;4306;50.210;10.628;2024-01-15T03:53:02;-2.40;99.90
8537;DHT22;4306;50.210;10.628;2024-01-15T03:55:29;-2.50;99.90
8537;DHT22;4306;50.210;10.628;2024-01-15T03:57:57;-2.40;99.90
8537;DHT22;4306;50.210;10.628;2024-01-15T04:00:24;-2.50;99.90
8537;DHT22;4306;50.210;10.628;2024-01-15T04:02:51;-2.50;99.90
8537;DHT22;4306;50.210;10.628;2024-01-15T04:05:19;-2.50;99.90
8537;DHT22;4306;50.210;10.628;2024-01-15T04:07:48;-2.40;99.90
8537;DHT22;4306;50.210;10.628;2024-01-15T04:10:15;-2.40;99.90
8537;DHT22;4306;50.210;10.628;2024-01-15T04:12:42;-2.40;99.90
8537;DHT22;4306;50.210;10.628;2024-01-15T04:15:11;-2.30;99.90
8537;DHT22;4306;50.210;10.628;2024-01-15T04:17:38;-2.40;99.90
8537;DHT22;4306;50.210;10.628;2024-01-15T04:20:07;-2.40;99.90
8537;DHT22;4306;50.210;10.628;2024-01-15T04:22:35;-2.40;99.90
8537;DHT22;4306;50.210;10.628;2024-01-15T04:25:05;-2.40;99.90
8537;DHT22;4306;50.210;10.628;2024-01-15T04:27:32;-2.40;99.90
8537;DHT22;4306;50.210;10.628;2024-01-15T04:29:59;-2.40;99.90
8537;DHT22;4306;50.210;10.628;2024-01-15T04:32:27;-2.40;99.90
8537;DHT22;4306;50.210;10.628;2024-01-15T04:34:54;-2.40;99.90
8537;DHT22;4306;50.210;10.628;2024-01-15T04:37:21;-2.40;99.90
8537;DHT22;4306;50.210;10.628;2024-01-15T04:39:48;-2.40;99.90
8537;DHT22;4306;50.210;10.628;2024-01-15T04:42:19;-2.30;99.90
8537;DHT22;4306;50.210;10.628;2024-01-15T04:44:46;-2.40;99.90
8537;DHT22;4306;50.210;10.628;2024-01-15T04:47:14;-2.40;99.90
8537;DHT22;4306;50.210;10.628;2024-01-15T04:49:41;-2.40;99.90
8537;DHT22;4306;50.210;10.628;2024-01-15T04:52:08;-2.40;99.90
8537;DHT22;4306;50.210;10.628;2024-01-15T04:54:36;-2.30;99.90
8537;DHT22;4306;50.210;10.628;2024-01-15T04:57:03;-2.40;99.90
8537;DHT22;4306;50.210;10.628;2024-01-15T04:59:32;-2.30;99.90
8537;DHT22;4306;50.210;10.628;2024-01-15T05:01:59;-2.40;99.90
8537;DHT22;4306;50.210;10.628;2024-01-15T05:04:26;-2.40;99.90
8537;DHT22;4306;50.210;10.628;2024-01-15T05:06:53;-2.30;99.90
8537;DHT22;4306;50.210;10.628;2024-01-15T05:09:20;-2.30;99.90
8537;DHT22;4306;50.210;10.628;2024-01-15T05:11:47;-2.20;99.90
8537;DHT22;4306;50.210;10.628;2024-01-15T05:14:14;-2.20;99.90
8537;DHT22;4306;50.210;10.628;2024-01-15T05:16:48;-2.20;99.90
8537;DHT22;4306;50.210;10.628;2024-01-15T05:19:15;-2.20;99.90
8537;DHT22;4306;50.210;10.628;2024-01-15T05:21:42;-2.20;99.90
8537;DHT22;4306;50.210;10.628;2024-01-15T05:24:09;-2.20;99.90
8537;DHT22;4306;50.210;10.628;2024-01-15T05:26:36;-2.20;99.90
8537;DHT22;4306;50.210;10.628;2024-01-15T05:29:03;-2.20;99.90
8537;DHT22;4306;50.210;10.628;2024-01-15T05:31:30;-2.20;99.90
8537;DHT22;4306;50.210;10.628;2024-01-15T05:33:59;-2.20;99.90
8537;DHT22;4306;50.210;10.628;2024-01-15T05:36:26;-2.20;99.90
8537;DHT22;4306;50.210;10.628;2024-01-15T05:38:53;-2.20;99.90
8537;DHT22;4306;50.210;10.628;2024-01-15T05:41:20;-2.20;99.90
8537;DHT22;4306;50.210;10.628;2024-01-15T05:43:47;-2.20;99.90
8537;DHT22;4306;50.210;10.628;2024-01-15T05:46:14;-2.20;99.90
8537;DHT22;4306;50.210;10.628;2024-01-15T05:48:41;-2.20;99.90
8537;DHT22;4306;50.210;10.628;2024-01-15T05:51:10;-2.10;99.90
8537;DHT22;4306;50.210;10.628;2024-01-15T05:53:37;-2.20;99.90
8537;DHT22;4306;50.210;10.628;2024-01-15T05:56:06;-2.20;99.90
8537;DHT22;4306;50.210;10.628;2024-01-15T05:58:33;-2.20;99.90
8537;DHT22;4306;50.210;10.628;2024-01-15T06:01:00;-2.20;99.90
8537;DHT22;4306;50.210;10.628;2024-01-15T06:03:27;-2.10;99.90
8537;DHT22;4306;50.210;10.628;2024-01-15T06:05:54;-2.10;99.90
8537;DHT22;4306;50.210;10.628;2024-01-15T06:08:22;-2.10;99.90
8537;DHT22;4306;50.210;10.628;2024-01-15T06:10:49;-2.00;99.90
8537;DHT22;4306;50.210;10.628;2024-01-15T06:13:16;-2.10;99.90
8537;DHT22;4306;50.210;10.628;2024-01-15T06:15:43;-2.20;99.90
8537;DHT22;4306;50.210;10.628;2024-01-15T06:18:10;-2.10;99.90
8537;DHT22;4306;50.210;10.628;2024-01-15T06:20:37;-2.10;99.90
8537;DHT22;4306;50.210;10.628;2024-01-15T06:23:05;-2.10;99.90
8537;DHT22;4306;50.210;10.628;2024-01-15T06:25:33;-2.00;99.90
8537;DHT22;4306;50.210;10.628;2024-01-15T06:28:00;-2.10;99.90
8537;DHT22;4306;50.210;10.628;2024-01-15T06:30:27;-2.10;99.90
8537;DHT22;4306;50.210;10.628;2024-01-15T06:32:55;-2.00;99.90
8537;DHT22;4306;50.210;10.628;2024-01-15T06:35:22;-2.00;99.90
8537;DHT22;4306;50.210;10.628;2024-01-15T06:37:49;-1.80;99.90
8537;DHT22;4306;50.210;10.628;2024-01-15T06:40:16;-2.00;99.90
8537;DHT22;4306;50.210;10.628;2024-01-15T06:42:45;-1.90;99.90
8537;DHT22;4306;50.210;10.628;2024-01-15T06:45:12;-1.90;99.90
8537;DHT22;4306;50.210;10.628;2024-01-15T06:47:39;-1.90;99.90
8537;DHT22;4306;50.210;10.628;2024-01-15T06:50:08;-1.80;99.90
8537;DHT22;4306;50.210;10.628;2024-01-15T06:52:35;-1.90;99.90
8537;DHT22;4306;50.210;10.628;2024-01-15T06:55:02;-2.00;99.90
8537;DHT22;4306;50.210;10.628;2024-01-15T06:57:31;-2.00;99.90
8537;DHT22;4306;50.210;10.628;2024-01-15T06:59:59;-1.90;99.90
8537;DHT22;4306;50.210;10.628;2024-01-15T07:02:27;-2.00;99.90
8537;DHT22;4306;50.210;10.628;2024-01-15T07:04:54;-1.90;99.90
8537;DHT22;4306;50.210;10.628;2024-01-15T07:07:21;-1.80;99.90
8537;DHT22;4306;50.210;10.628;2024-01-15T07:09:48;-1.80;99.90
8537;DHT22;4306;50.210;10.628;2024-01-15T07:12:17;-1.80;99.90
8537;DHT22;4306;50.210;10.628;2024-01-15T07:14:44;-1.80;99.90
8537;DHT22;4306;50.210;10.628;2024-01-15T07:17:17;-1.80;99.90
8537;DHT22;4306;50.210;10.628;2024-01-15T07:19:47;-1.80;99.90
8537;DHT22;4306;50.210;10.628;2024-01-15T07:22:14;-1.90;99.90
8537;DHT22;4306;50.210;10.628;2024-01-15T07:24:43;-1.90;99.90
8537;DHT22;4306;50.210;10.628;2024-01-15T07:27:11;-1.90;99.90
8537;DHT22;4306;50.210;10.628;2024-01-15T07:29:38;-1.90;99.90
8537;DHT22;4306;50.210;10.628;2024-01-15T07:32:06;-1.90;99.90
8537;DHT22;4306;50.210;10.628;2024-01-15T07:34:36;-1.80;99.90
8537;DHT22;4306;50.210;10.628;2024-01-15T07:37:03;-1.80;99.90
8537;DHT22;4306;50.210;10.628;2024-01-15T07:39:30;-1.80;99.90
8537;DHT22;4306;50.210;10.628;2024-01-15T07:41:57;-1.80;99.90
8537;DHT22;4306;50.210;10.628;2024-01-15T07:44:24;-1.80;99.90
8537;DHT22;4306;50.210;10.628;2024-01-15T07:46:52;-1.80;99.90
8537;DHT22;4306;50.210;10.628;2024-01-15T07:49:19;-1.80;99.90
8537;DHT22;4306;50.210;10.628;2024-01-15T07:51:47;-1.80;99.90
8537;DHT22;4306;50.210;10.628;2024-01-15T07:54:15;-1.80;99.90
8537;DHT22;4306;50.210;10.628;2024-01-15T07:56:53;-1.90;99.90
8537;DHT22;4306;50.210;10.628;2024-01-15T07:59:23;-1.90;99.90
8537;DHT22;4306;50.210;10.628;2024-01-15T08:01:51;-1.90;99.90
8537;DHT22;4306;50.210;10.628;2024-01-15T08:04:18;-1.90;99.90
8537;DHT22;4306;50.210;10.628;2024-01-15T08:06:49;-1.90;99.90
8537;DHT22;4306;50.210;10.628;2024-01-15T08:09:16;-1.80;99.90
8537;DHT22;4306;50.210;10.628;2024-01-15T08:11:43;-1.90;99.90
8537;DHT22;4306;50.210;10.628;2024-01-15T08:14:10;-1.90;99.90
8537;DHT22;4306;50.210;10.628;2024-01-15T08:16:38;-1.80;99.90
8537;DHT22;4306;50.210;10.628;2024-01-15T08:19:06;-1.80;99.90
8537;DHT22;4306;50.210;10.628;2024-01-15T08:21:33;-1.80;99.90
8537;DHT22;4306;50.210;10.628;2024-01-15T08:24:02;-1.80;99.90
8537;DHT22;4306;50.210;10.628;2024-01-15T08:26:30;-1.80;99.90
8537;DHT22;4306;50.210;10.628;2024-01-15T08:28:58;-1.70;99.90
8537;DHT22;4306;50.210;10.628;2024-01-15T08:31:25;-1.70;99.90
8537;DHT22;4306;50.210;10.628;2024-01-15T08:33:52;-1.70;99.90
8537;DHT22;4306;50.210;10.628;2024-01-15T08:36:21;-1.70;99.90
8537;DHT22;4306;50.210;10.628;2024-01-15T08:38:49;-1.70;99.90
8537;DHT22;4306;50.210;10.628;2024-01-15T08:41:18;-1.60;99.90
8537;DHT22;4306;50.210;10.628;2024-01-15T08:43:45;-1.60;99.90
8537;DHT22;4306;50.210;10.628;2024-01-15T08:46:12;-1.60;99.90
8537;DHT22;4306;50.210;10.628;2024-01-15T08:48:39;-1.50;99.90
8537;DHT22;4306;50.210;10.628;2024-01-15T08:51:06;-1.50;99.90
8537;DHT22;4306;50.210;10.628;2024-01-15T08:53:33;-1.50;99.90
8537;DHT22;4306;50.210;10.628;2024-01-15T08:56:00;-1.50;99.90
8537;DHT22;4306;50.210;10.628;2024-01-15T08:58:29;-1.50;99.90
8537;DHT22;4306;50.210;10.628;2024-01-15T09:00:56;-1.50;99.90
8537;DHT22;4306;50.210;10.628;2024-01-15T09:03:23;-1.40;99.90
8537;DHT22;4306;50.210;10.628;2024-01-15T09:05:51;-1.50;99.90
8537;DHT22;4306;50.210;10.628;2024-01-15T09:08:18;-1.40;99.90
8537;DHT22;4306;50.210;10.628;2024-01-15T09:10:45;-1.40;99.90
8537;DHT22;4306;50.210;10.628;2024-01-15T09:13:12;-1.40;99.90
8537;DHT22;4306;50.210;10.628;2024-01-15T09:15:40;-1.30;99.90
8537;DHT22;4306;50.210;10.628;2024-01-15T09:18:09;-1.30;99.90
8537;DHT22;4306;50.210;10.628;2024-01-15T09:20:36;-1.30;99.90
8537;DHT22;4306;50.210;10.628;2024-01-15T09:23:04;-1.30;99.90
8537;DHT22;4306;50.210;10.628;2024-01-15T09:25:32;-1.30;99.90
8537;DHT22;4306;50.210;10.628;2024-01-15T09:27:59;-1.20;99.90
8537;DHT22;4306;50.210;10.628;2024-01-15T09:30:26;-1.30;99.90
8537;DHT22;4306;50.210;10.628;2024-01-15T09:32:54;-1.30;99.90
8537;DHT22;4306;50.210;10.628;2024-01-15T09:35:22;-1.30;99.90
8537;DHT22;4306;50.210;10.628;2024-01-15T09:37:50;-1.30;99.90
8537;DHT22;4306;50.210;10.628;2024-01-15T09:40:17;-1.30;99.90
8537;DHT22;4306;50.210;10.628;2024-01-15T09:42:47;-1.20;99.90
8537;DHT22;4306;50.210;10.628;2024-01-15T09:45:14;-1.20;99.90
8537;DHT22;4306;50.210;10.628;2024-01-15T09:47:42;-1.20;99.90
8537;DHT22;4306;50.210;10.628;2024-01-15T09:50:11;-1.20;99.90
8537;DHT22;4306;50.210;10.628;2024-01-15T09:52:38;-1.20;99.90
8537;DHT22;4306;50.210;10.628;2024-01-15T09:55:06;-1.20;99.90
8537;DHT22;4306;50.210;10.628;2024-01-15T09:57:35;-1.20;99.90
8537;DHT22;4306;50.210;10.628;2024-01-15T10:00:03;-1.10;99.90
8537;DHT22;4306;50.210;10.628;2024-01-15T10:02:32;-1.10;99.90
8537;DHT22;4306;50.210;10.628;2024-01-15T10:04:59;-1.10;99.90
8537;DHT22;4306;50.210;10.628;2024-01-15T10:07:29;-1.00;99.90
8537;DHT22;4306;50.210;10.628;2024-01-15T10:09:57;-1.00;99.90
8537;DHT22;4306;50.210;10.628;2024-01-15T10:12:24;-1.00;99.90
8537;DHT22;4306;50.210;10.628;2024-01-15T10:14:52;-1.00;99.90
8537;DHT22;4306;50.210;10.628;2024-01-15T10:17:19;-1.10;99.90
8537;DHT22;4306;50.210;10.628;2024-01-15T10:19:47;-0.90;99.90
8537;DHT22;4306;50.210;10.628;2024-01-15T10:22:14;-0.90;99.90
8537;DHT22;4306;50.210;10.628;2024-01-15T10:24:43;-0.90;99.90
8537;DHT22;4306;50.210;10.628;2024-01-15T10:27:11;-0.90;99.90
8537;DHT22;4306;50.210;10.628;2024-01-15T10:29:38;-0.90;99.90
8537;DHT22;4306;50.210;10.628;2024-01-15T10:32:07;-0.90;99.90
8537;DHT22;4306;50.210;10.628;2024-01-15T10:34:37;-0.90;99.90
8537;DHT22;4306;50.210;10.628;2024-01-15T10:37:07;-0.90;99.90
8537;DHT22;4306;50.210;10.628;2024-01-15T10:39:35;-0.90;99.90
8537;DHT22;4306;50.210;10.628;2024-01-15T10:42:04;-0.90;99.90
8537;DHT22;4306;50.210;10.628;2024-01-15T10:44:32;-0.80;99.90
8537;DHT22;4306;50.210;10.628;2024-01-15T10:46:59;-0.80;99.90
8537;DHT22;4306;50.210;10.628;2024-01-15T10:49:27;-0.70;99.90
8537;DHT22;4306;50.210;10.628;2024-01-15T10:51:56;-0.70;99.90
8537;DHT22;4306;50.210;10.628;2024-01-15T10:54:23;-0.70;99.90
8537;DHT22;4306;50.210;10.628;2024-01-15T10:56:51;-0.70;99.90
8537;DHT22;4306;50.210;10.628;2024-01-15T10:59:21;-0.80;99.90
8537;DHT22;4306;50.210;10.628;2024-01-15T11:01:49;-0.70;99.90
8537;DHT22;4306;50.210;10.628;2024-01-15T11:04:19;-0.70;99.90
8537;DHT22;4306;50.210;10.628;2024-01-15T11:06:49;-0.80;99.90
8537;DHT22;4306;50.210;10.628;2024-01-15T11:09:19;-0.70;99.90
8537;DHT22;4306;50.210;10.628;2024-01-15T11:11:47;-0.60;99.90
8537;DHT22;4306;50.210;10.628;2024-01-15T11:14:34;-0.90;99.90
8537;DHT22;4306;50.210;10.628;2024-01-15T11:17:01;-0.60;99.90
8537;DHT22;4306;50.210;10.628;2024-01-15T11:19:36;-0.60;99.90
8537;DHT22;4306;50.210;10.628;2024-01-15T11:22:07;-0.60;99.90
8537;DHT22;4306;50.210;10.628;2024-01-15T11:24:36;-0.70;99.90
8537;DHT22;4306;50.210;10.628;2024-01-15T11:27:04;-0.60;99.90
8537;DHT22;4306;50.210;10.628;2024-01-15T11:29:33;-0.70;99.90
8537;DHT22;4306;50.210;10.628;2024-01-15T11:32:04;-0.50;99.90
8537;DHT22;4306;50.210;10.628;2024-01-15T11:34:59;-0.70;99.90
8537;DHT22;4306;50.210;10.628;2024-01-15T11:37:28;-0.60;99.90
8537;DHT22;4306;50.210;10.628;2024-01-15T11:40:01;-0.70;99.90
8537;DHT22;4306;50.210;10.628;2024-01-15T11:42:30;-0.60;99.90
8537;DHT22;4306;50.210;10.628;2024-01-15T11:44:58;-0.60;99.90
8537;DHT22;4306;50.210;10.628;2024-01-15T11:47:54;-0.60;99.90
8537;DHT22;4306;50.210;10.628;2024-01-15T11:50:41;-0.50;99.90
8537;DHT22;4306;50.210;10.628;2024-01-15T11:53:16;-0.50;99.90
8537;DHT22;4306;50.210;10.628;2024-01-15T11:55:45;-0.40;99.90
8537;DHT22;4306;50.210;10.628;2024-01-15T11:58:14;-0.40;99.90
8537;DHT22;4306;50.210;10.628;2024-01-15T12:00:46;-0.40;99.90
8537;DHT22;4306;50.210;10.628;2024-01-15T12:03:15;-0.40;99.90
8537;DHT22;4306;50.210;10.628;2024-01-15T12:05:42;-0.40;99.90
8537;DHT22;4306;50.210;10.628;2024-01-15T12:08:09;-0.30;99.90
8537;DHT22;4306;50.210;10.628;2024-01-15T12:10:37;-0.40;99.90
8537;DHT22;4306;50.210;10.628;2024-01-15T12:13:10;-0.30;99.90
8537;DHT22;4306;50.210;10.628;2024-01-15T12:15:38;-0.30;99.90
8537;DHT22;4306;50.210;10.628;2024-01-15T12:18:09;-0.30;99.90
8537;DHT22;4306;50.210;10.628;2024-01-15T12:20:36;-0.30;99.90
8537;DHT22;4306;50.210;10.628;2024-01-15T12:23:04;-0.20;99.90
8537;DHT22;4306;50.210;10.628;2024-01-15T12:25:32;-0.20;99.90
8537;DHT22;4306;50.210;10.628;2024-01-15T12:28:00;-0.10;99.90
8537;DHT22;4306;50.210;10.628;2024-01-15T12:30:28;-0.20;99.90
8537;DHT22;4306;50.210;10.628;2024-01-15T12:32:57;-0.10;99.90
8537;DHT22;4306;50.210;10.628;2024-01-15T12:35:25;-0.10;99.90
8537;DHT22;4306;50.210;10.628;2024-01-15T12:37:54;-0.10;99.90
8537;DHT22;4306;50.210;10.628;2024-01-15T12:40:22;0.00;99.90
8537;DHT22;4306;50.210;10.628;2024-01-15T12:42:50;0.00;99.90
8537;DHT22;4306;50.210;10.628;2024-01-15T12:45:18;0.00;99.90
8537;DHT22;4306;50.210;10.628;2024-01-15T12:47:46;0.10;99.90
8537;DHT22;4306;50.210;10.628;2024-01-15T12:50:14;0.10;99.90
8537;DHT22;4306;50.210;10.628;2024-01-15T12:52:42;0.10;99.90
8537;DHT22;4306;50.210;10.628;2024-01-15T12:55:10;0.10;99.90
8537;DHT22;4306;50.210;10.628;2024-01-15T12:57:37;0.00;99.90
8537;DHT22;4306;50.210;10.628;2024-01-15T13:00:06;0.10;99.90
8537;DHT22;4306;50.210;10.628;2024-01-15T13:02:37;0.10;99.90
8537;DHT22;4306;50.210;10.628;2024-01-15T13:05:06;0.20;99.90
8537;DHT22;4306;50.210;10.628;2024-01-15T13:07:34;0.20;99.90
8537;DHT22;4306;50.210;10.628;2024-01-15T13:10:03;0.20;99.90
8537;DHT22;4306;50.210;10.628;2024-01-15T13:12:30;0.20;99.90
8537;DHT22;4306;50.210;10.628;2024-01-15T13:14:58;0.20;99.90
8537;DHT22;4306;50.210;10.628;2024-01-15T13:17:25;0.20;99.90
8537;DHT22;4306;50.210;10.628;2024-01-15T13:19:52;0.30;99.90
8537;DHT22;4306;50.210;10.628;2024-01-15T13:22:19;0.30;99.90
8537;DHT22;4306;50.210;10.628;2024-01-15T13:24:46;0.30;99.90
8537;DHT22;4306;50.210;10.628;2024-01-15T13:27:15;0.30;99.90
8537;DHT22;4306;50.210;10.628;2024-01-15T13:29:42;0.40;99.90
8537;DHT22;4306;50.210;10.628;2024-01-15T13:32:11;0.30;99.90
8537;DHT22;4306;50.210;10.628;2024-01-15T13:34:40;0.30;99.90
8537;DHT22;4306;50.210;10.628;2024-01-15T13:37:07;0.30;99.90
8537;DHT22;4306;50.210;10.628;2024-01-15T13:39:35;0.30;99.90
8537;DHT22;4306;50.210;10.628;2024-01-15T13:42:03;0.20;99.90
8537;DHT22;4306;50.210;10.628;2024-01-15T13:44:31;0.30;99.90
8537;DHT22;4306;50.210;10.628;2024-01-15T13:46:58;0.20;99.90
8537;DHT22;4306;50.210;10.628;2024-01-15T13:49:25;0.20;99.90
8537;DHT22;4306;50.210;10.628;2024-01-15T13:51:53;0.20;99.90
8537;DHT22;4306;50.210;10.628;2024-01-15T13:54:20;0.10;99.90
8537;DHT22;4306;50.210;10.628;2024-01-15T13:56:47;0.10;99.90
8537;DHT22;4306;50.210;10.628;2024-01-15T13:59:15;0.10;99.90
8537;DHT22;4306;50.210;10.628;2024-01-15T14:01:43;0.10;99.90
8537;DHT22;4306;50.210;10.628;2024-01-15T14:04:12;0.00;99.90
8537;DHT22;4306;50.210;10.628;2024-01-15T14:06:39;0.10;99.90
8537;DHT22;4306;50.210;10.628;2024-01-15T14:09:06;0.10;99.90
8537;DHT22;4306;50.210;10.628;2024-01-15T14:11:35;0.10;99.90
8537;DHT22;4306;50.210;10.628;2024-01-15T14:14:03;0.10;99.90
8537;DHT22;4306;50.210;10.628;2024-01-15T14:16:30;0.10;99.90
8537;DHT22;4306;50.210;10.628;2024-01-15T14:18:58;0.00;99.90
8537;DHT22;4306;50.210;10.628;2024-01-15T14:21:27;-0.10;99.90
8537;DHT22;4306;50.210;10.628;2024-01-15T14:23:55;0.00;99.90
8537;DHT22;4306;50.210;10.628;2024-01-15T14:26:22;-0.10;99.90
8537;DHT22;4306;50.210;10.628;2024-01-15T14:28:49;0.00;99.90
8537;DHT22;4306;50.210;10.628;2024-01-15T14:31:16;0.00;99.90
8537;DHT22;4306;50.210;10.628;2024-01-15T14:33:43;0.00;99.90
8537;DHT22;4306;50.210;10.628;2024-01-15T14:36:11;0.00;99.90
8537;DHT22;4306;50.210;10.628;2024-01-15T14:38:38;0.00;99.90
8537;DHT22;4306;50.210;10.628;2024-01-15T14:41:05;0.00;99.90
8537;DHT22;4306;50.210;10.628;2024-01-15T14:43:32;0.00;99.90
8537;DHT22;4306;50.210;10.628;2024-01-15T14:45:59;0.00;99.90
8537;DHT22;4306;50.210;10.628;2024-01-15T14:48:26;0.10;99.90
8537;DHT22;4306;50.210;10.628;2024-01-15T14:50:54;0.10;99.90
8537;DHT22;4306;50.210;10.628;2024-01-15T14:53:23;0.00;99.90
8537;DHT22;4306;50.210;10.628;2024-01-15T14:55:50;0.10;99.90
8537;DHT22;4306;50.210;10.628;2024-01-15T14:58:17;0.10;99.90
8537;DHT22;4306;50.210;10.628;2024-01-15T15:00:44;0.10;99.90
8537;DHT22;4306;50.210;10.628;2024-01-15T15:03:11;0.00;99.90
8537;DHT22;4306;50.210;10.628;2024-01-15T15:05:41;0.00;99.90
8537;DHT22;4306;50.210;10.628;2024-01-15T15:08:08;-0.10;99.90
8537;DHT22;4306;50.210;10.628;2024-01-15T15:10:38;0.00;99.90
8537;DHT22;4306;50.210;10.628;2024-01-15T15:13:06;-0.10;99.90
8537;DHT22;4306;50.210;10.628;2024-01-15T15:15:33;0.00;99.90
8537;DHT22;4306;50.210;10.628;2024-01-15T15:18:00;0.00;99.90
8537;DHT22;4306;50.210;10.628;2024-01-15T15:20:27;0.00;99.90
8537;DHT22;4306;50.210;10.628;2024-01-15T15:22:54;0.00;99.90
8537;DHT22;4306;50.210;10.628;2024-01-15T15:25:22;-0.10;99.90
8537;DHT22;4306;50.210;10.628;2024-01-15T15:27:50;-0.10;99.90
8537;DHT22;4306;50.210;10.628;2024-01-15T15:30:17;0.00;99.90
8537;DHT22;4306;50.210;10.628;2024-01-15T15:32:44;0.00;99.90
8537;DHT22;4306;50.210;10.628;2024-01-15T15:35:11;0.00;99.90
8537;DHT22;4306;50.210;10.628;2024-01-15T15:37:38;0.10;99.90
8537;DHT22;4306;50.210;10.628;2024-01-15T15:40:07;0.10;99.90
8537;DHT22;4306;50.210;10.628;2024-01-15T15:42:36;0.00;99.90
8537;DHT22;4306;50.210;10.628;2024-01-15T15:45:05;0.00;99.90
8537;DHT22;4306;50.210;10.628;2024-01-15T15:47:35;0.00;99.90
8537;DHT22;4306;50.210;10.628;2024-01-15T15:50:02;0.00;99.90
8537;DHT22;4306;50.210;10.628;2024-01-15T15:52:29;0.00;99.90
8537;DHT22;4306;50.210;10.628;2024-01-15T15:54:56;0.00;99.90